Terminal Aerodrome Forecast
Issued by NWS Sterling, VA

Current Version | Previous Version | Graphics & Text | Print | Product List | Glossary On
Versions: 1 2 3 4 5 6 7 8 9 10 11 12 13 14 15 16 17 18 19 20 21 22 23 24 25 26 27 28 29 30 31
117
FTUS41 KLWX 222335
TAFIAD
TAF
KIAD 222335Z 2300/2406 02008KT 3SM -DZ BR OVC008
     FM230500 06006KT 3SM -DZ BR OVC003
     FM230600 06006KT 2SM -RADZ BR OVC003
     FM231200 09005KT 1 1/2SM -RA BR OVC003
     FM231800 15005KT 1SM BR OVC003
     FM240000 18005KT 3SM BR OVC015=

USA.gov is the U.S. government's official web portal to all federal, state and local government web resources and services.